sensor_id;sensor_type;location;lat;lon;timestamp;temperature;humidity
46816;DHT22;32787;53.316;8.670;2022-11-30T00:01:15;4.70;95.30
46816;DHT22;32787;53.316;8.670;2022-11-30T00:03:41;4.60;95.30
46816;DHT22;32787;53.316;8.670;2022-11-30T00:06:09;4.70;95.30
46816;DHT22;32787;53.316;8.670;2022-11-30T00:08:35;4.70;95.30
46816;DHT22;32787;53.316;8.670;2022-11-30T00:11:12;4.70;95.30
46816;DHT22;32787;53.316;8.670;2022-11-30T00:13:38;4.70;95.30
46816;DHT22;32787;53.316;8.670;2022-11-30T00:16:04;4.70;95.30
46816;DHT22;32787;53.316;8.670;2022-11-30T00:18:30;4.80;95.30
46816;DHT22;32787;53.316;8.670;2022-11-30T00:21:04;4.70;95.30
46816;DHT22;32787;53.316;8.670;2022-11-30T00:23:35;4.70;95.30
46816;DHT22;32787;53.316;8.670;2022-11-30T00:26:06;4.70;95.30
46816;DHT22;32787;53.316;8.670;2022-11-30T00:28:33;4.70;95.30
46816;DHT22;32787;53.316;8.670;2022-11-30T00:31:01;4.70;95.30
46816;DHT22;32787;53.316;8.670;2022-11-30T00:33:28;4.70;95.30
46816;DHT22;32787;53.316;8.670;2022-11-30T00:35:58;4.70;95.30
46816;DHT22;32787;53.316;8.670;2022-11-30T00:38:25;4.70;95.30
46816;DHT22;32787;53.316;8.670;2022-11-30T00:40:51;4.80;95.40
46816;DHT22;32787;53.316;8.670;2022-11-30T00:43:17;4.70;95.30
46816;DHT22;32787;53.316;8.670;2022-11-30T00:45:42;4.60;95.30
46816;DHT22;32787;53.316;8.670;2022-11-30T00:48:08;4.60;95.30
46816;DHT22;32787;53.316;8.670;2022-11-30T00:50:34;4.60;95.30
46816;DHT22;32787;53.316;8.670;2022-11-30T00:52:59;4.70;95.30
46816;DHT22;32787;53.316;8.670;2022-11-30T00:55:25;4.60;95.30
46816;DHT22;32787;53.316;8.670;2022-11-30T00:57:52;4.70;95.30
46816;DHT22;32787;53.316;8.670;2022-11-30T01:00:18;4.70;95.30
46816;DHT22;32787;53.316;8.670;2022-11-30T01:02:44;4.60;95.30
46816;DHT22;32787;53.316;8.670;2022-11-30T01:05:10;4.70;95.30
46816;DHT22;32787;53.316;8.670;2022-11-30T01:07:36;4.60;95.30
46816;DHT22;32787;53.316;8.670;2022-11-30T01:10:02;4.70;95.30
46816;DHT22;32787;53.316;8.670;2022-11-30T01:12:27;4.60;95.20
46816;DHT22;32787;53.316;8.670;2022-11-30T01:14:53;4.60;95.20
46816;DHT22;32787;53.316;8.670;2022-11-30T01:17:19;4.60;95.20
46816;DHT22;32787;53.316;8.670;2022-11-30T01:19:44;4.60;95.20
46816;DHT22;32787;53.316;8.670;2022-11-30T01:22:10;4.70;95.30
46816;DHT22;32787;53.316;8.670;2022-11-30T01:24:36;4.70;95.20
46816;DHT22;32787;53.316;8.670;2022-11-30T01:27:01;4.80;95.30
46816;DHT22;32787;53.316;8.670;2022-11-30T01:29:27;4.60;95.20
46816;DHT22;32787;53.316;8.670;2022-11-30T01:31:52;4.70;95.20
46816;DHT22;32787;53.316;8.670;2022-11-30T01:34:19;4.60;95.20
46816;DHT22;32787;53.316;8.670;2022-11-30T01:36:45;4.60;95.20
46816;DHT22;32787;53.316;8.670;2022-11-30T01:39:13;4.60;95.20
46816;DHT22;32787;53.316;8.670;2022-11-30T01:41:39;4.60;95.20
46816;DHT22;32787;53.316;8.670;2022-11-30T01:49:13;4.60;95.30
46816;DHT22;32787;53.316;8.670;2022-11-30T01:51:52;4.60;95.20
46816;DHT22;32787;53.316;8.670;2022-11-30T01:54:25;4.60;95.20
46816;DHT22;32787;53.316;8.670;2022-11-30T01:56:55;4.60;95.20
46816;DHT22;32787;53.316;8.670;2022-11-30T01:59:23;4.60;95.20
46816;DHT22;32787;53.316;8.670;2022-11-30T02:01:51;4.60;95.20
46816;DHT22;32787;53.316;8.670;2022-11-30T02:04:21;4.50;95.30
46816;DHT22;32787;53.316;8.670;2022-11-30T02:06:49;4.60;95.30
46816;DHT22;32787;53.316;8.670;2022-11-30T02:09:16;4.70;95.30
46816;DHT22;32787;53.316;8.670;2022-11-30T02:11:42;4.60;95.30
46816;DHT22;32787;53.316;8.670;2022-11-30T02:23:02;4.60;95.30
46816;DHT22;32787;53.316;8.670;2022-11-30T02:31:22;4.60;95.30
46816;DHT22;32787;53.316;8.670;2022-11-30T02:33:50;4.50;95.20
46816;DHT22;32787;53.316;8.670;2022-11-30T02:36:17;4.60;95.30
46816;DHT22;32787;53.316;8.670;2022-11-30T02:38:43;4.60;95.30
46816;DHT22;32787;53.316;8.670;2022-11-30T02:41:10;4.60;95.30
46816;DHT22;32787;53.316;8.670;2022-11-30T02:43:36;4.60;95.30
46816;DHT22;32787;53.316;8.670;2022-11-30T02:46:05;4.60;95.20
46816;DHT22;32787;53.316;8.670;2022-11-30T02:48:41;4.60;95.30
46816;DHT22;32787;53.316;8.670;2022-11-30T02:51:10;4.50;95.20
46816;DHT22;32787;53.316;8.670;2022-11-30T02:53:38;4.60;95.20
46816;DHT22;32787;53.316;8.670;2022-11-30T02:56:04;4.60;95.20
46816;DHT22;32787;53.316;8.670;2022-11-30T02:58:30;4.50;95.20
46816;DHT22;32787;53.316;8.670;2022-11-30T03:00:56;4.50;95.30
46816;DHT22;32787;53.316;8.670;2022-11-30T03:03:21;4.60;95.30
46816;DHT22;32787;53.316;8.670;2022-11-30T03:05:47;4.60;95.30
46816;DHT22;32787;53.316;8.670;2022-11-30T03:08:13;4.60;95.30
46816;DHT22;32787;53.316;8.670;2022-11-30T03:10:38;4.60;95.30
46816;DHT22;32787;53.316;8.670;2022-11-30T03:13:04;4.60;95.30
46816;DHT22;32787;53.316;8.670;2022-11-30T03:15:29;4.60;95.30
46816;DHT22;32787;53.316;8.670;2022-11-30T03:17:55;4.60;95.30
46816;DHT22;32787;53.316;8.670;2022-11-30T03:20:21;4.60;95.30
46816;DHT22;32787;53.316;8.670;2022-11-30T03:22:46;4.60;95.30
46816;DHT22;32787;53.316;8.670;2022-11-30T03:25:12;4.60;95.30
46816;DHT22;32787;53.316;8.670;2022-11-30T03:27:37;4.70;95.30
46816;DHT22;32787;53.316;8.670;2022-11-30T03:30:04;4.60;95.20
46816;DHT22;32787;53.316;8.670;2022-11-30T03:32:30;4.60;95.20
46816;DHT22;32787;53.316;8.670;2022-11-30T03:34:55;4.60;95.30
46816;DHT22;32787;53.316;8.670;2022-11-30T03:37:21;4.70;95.20
46816;DHT22;32787;53.316;8.670;2022-11-30T03:39:47;4.60;95.20
46816;DHT22;32787;53.316;8.670;2022-11-30T03:42:12;4.60;95.20
46816;DHT22;32787;53.316;8.670;2022-11-30T03:44:38;4.50;95.20
46816;DHT22;32787;53.316;8.670;2022-11-30T03:47:04;4.60;95.20
46816;DHT22;32787;53.316;8.670;2022-11-30T03:49:30;4.60;95.20
46816;DHT22;32787;53.316;8.670;2022-11-30T03:51:55;4.60;95.20
46816;DHT22;32787;53.316;8.670;2022-11-30T03:54:21;4.60;95.20
46816;DHT22;32787;53.316;8.670;2022-11-30T03:56:47;4.50;95.20
46816;DHT22;32787;53.316;8.670;2022-11-30T03:59:12;4.50;95.20
46816;DHT22;32787;53.316;8.670;2022-11-30T04:01:38;4.60;95.20
46816;DHT22;32787;53.316;8.670;2022-11-30T04:04:05;4.60;95.20
46816;DHT22;32787;53.316;8.670;2022-11-30T04:06:32;4.60;95.20
46816;DHT22;32787;53.316;8.670;2022-11-30T04:08:57;4.50;95.20
46816;DHT22;32787;53.316;8.670;2022-11-30T04:11:23;4.50;95.20
46816;DHT22;32787;53.316;8.670;2022-11-30T04:13:49;4.60;95.30
46816;DHT22;32787;53.316;8.670;2022-11-30T04:16:15;4.60;95.20
46816;DHT22;32787;53.316;8.670;2022-11-30T04:18:40;4.70;95.20
46816;DHT22;32787;53.316;8.670;2022-11-30T04:21:07;4.60;95.20
46816;DHT22;32787;53.316;8.670;2022-11-30T04:23:35;4.50;95.20
46816;DHT22;32787;53.316;8.670;2022-11-30T04:26:06;4.70;95.20
46816;DHT22;32787;53.316;8.670;2022-11-30T04:28:33;4.60;95.20
46816;DHT22;32787;53.316;8.670;2022-11-30T04:30:59;4.60;95.10
46816;DHT22;32787;53.316;8.670;2022-11-30T04:33:26;4.70;95.10
46816;DHT22;32787;53.316;8.670;2022-11-30T04:35:55;4.60;94.90
46816;DHT22;32787;53.316;8.670;2022-11-30T04:38:22;4.60;95.00
46816;DHT22;32787;53.316;8.670;2022-11-30T04:40:48;4.60;94.90
46816;DHT22;32787;53.316;8.670;2022-11-30T04:43:14;4.60;94.90
46816;DHT22;32787;53.316;8.670;2022-11-30T04:45:40;4.70;94.90
46816;DHT22;32787;53.316;8.670;2022-11-30T04:48:06;4.70;94.90
46816;DHT22;32787;53.316;8.670;2022-11-30T04:50:32;4.60;94.80
46816;DHT22;32787;53.316;8.670;2022-11-30T04:52:58;4.60;94.80
46816;DHT22;32787;53.316;8.670;2022-11-30T04:55:24;4.60;94.80
46816;DHT22;32787;53.316;8.670;2022-11-30T04:57:50;4.60;94.80
46816;DHT22;32787;53.316;8.670;2022-11-30T05:00:17;4.60;94.90
46816;DHT22;32787;53.316;8.670;2022-11-30T05:02:43;4.50;94.90
46816;DHT22;32787;53.316;8.670;2022-11-30T05:05:09;4.60;94.90
46816;DHT22;32787;53.316;8.670;2022-11-30T05:07:35;4.80;94.90
46816;DHT22;32787;53.316;8.670;2022-11-30T05:10:01;4.80;94.80
46816;DHT22;32787;53.316;8.670;2022-11-30T05:12:26;4.60;94.80
46816;DHT22;32787;53.316;8.670;2022-11-30T05:14:52;4.70;94.70
46816;DHT22;32787;53.316;8.670;2022-11-30T05:17:17;4.60;94.70
46816;DHT22;32787;53.316;8.670;2022-11-30T05:19:43;4.60;94.70
46816;DHT22;32787;53.316;8.670;2022-11-30T05:22:09;4.60;94.70
46816;DHT22;32787;53.316;8.670;2022-11-30T05:24:34;4.70;94.70
46816;DHT22;32787;53.316;8.670;2022-11-30T05:27:00;4.70;94.70
46816;DHT22;32787;53.316;8.670;2022-11-30T05:29:25;4.70;94.60
46816;DHT22;32787;53.316;8.670;2022-11-30T05:31:51;4.70;94.40
46816;DHT22;32787;53.316;8.670;2022-11-30T05:34:17;4.60;94.40
46816;DHT22;32787;53.316;8.670;2022-11-30T05:36:42;4.60;94.40
46816;DHT22;32787;53.316;8.670;2022-11-30T05:39:08;4.60;94.40
46816;DHT22;32787;53.316;8.670;2022-11-30T05:41:34;4.50;94.40
46816;DHT22;32787;53.316;8.670;2022-11-30T05:43:59;4.50;94.50
46816;DHT22;32787;53.316;8.670;2022-11-30T05:46:25;4.50;94.50
46816;DHT22;32787;53.316;8.670;2022-11-30T05:48:51;4.50;94.50
46816;DHT22;32787;53.316;8.670;2022-11-30T05:51:18;4.50;94.50
46816;DHT22;32787;53.316;8.670;2022-11-30T05:53:45;4.50;94.40
46816;DHT22;32787;53.316;8.670;2022-11-30T05:56:16;4.50;94.40
46816;DHT22;32787;53.316;8.670;2022-11-30T05:58:43;4.50;94.40
46816;DHT22;32787;53.316;8.670;2022-11-30T06:01:20;4.40;94.40
46816;DHT22;32787;53.316;8.670;2022-11-30T06:03:46;4.50;94.40
46816;DHT22;32787;53.316;8.670;2022-11-30T06:06:11;4.60;94.40
46816;DHT22;32787;53.316;8.670;2022-11-30T06:08:37;4.50;94.30
46816;DHT22;32787;53.316;8.670;2022-11-30T06:11:03;4.40;94.30
46816;DHT22;32787;53.316;8.670;2022-11-30T06:13:28;4.50;94.40
46816;DHT22;32787;53.316;8.670;2022-11-30T06:16:00;4.60;94.40
46816;DHT22;32787;53.316;8.670;2022-11-30T06:18:27;4.50;94.20
46816;DHT22;32787;53.316;8.670;2022-11-30T06:20:52;4.50;94.30
46816;DHT22;32787;53.316;8.670;2022-11-30T06:23:18;4.50;94.30
46816;DHT22;32787;53.316;8.670;2022-11-30T06:25:43;4.50;94.20
46816;DHT22;32787;53.316;8.670;2022-11-30T06:28:10;4.40;94.20
46816;DHT22;32787;53.316;8.670;2022-11-30T06:30:36;4.40;94.30
46816;DHT22;32787;53.316;8.670;2022-11-30T06:33:02;4.40;94.30
46816;DHT22;32787;53.316;8.670;2022-11-30T06:35:28;4.40;94.40
46816;DHT22;32787;53.316;8.670;2022-11-30T06:37:53;4.40;94.40
46816;DHT22;32787;53.316;8.670;2022-11-30T06:40:19;4.30;94.40
46816;DHT22;32787;53.316;8.670;2022-11-30T06:42:45;4.30;94.50
46816;DHT22;32787;53.316;8.670;2022-11-30T06:45:10;4.30;94.60
46816;DHT22;32787;53.316;8.670;2022-11-30T06:47:36;4.30;94.60
46816;DHT22;32787;53.316;8.670;2022-11-30T06:50:02;4.40;94.70
46816;DHT22;32787;53.316;8.670;2022-11-30T06:52:32;4.40;94.70
46816;DHT22;32787;53.316;8.670;2022-11-30T06:54:57;4.30;94.70
46816;DHT22;32787;53.316;8.670;2022-11-30T06:57:29;4.30;94.70
46816;DHT22;32787;53.316;8.670;2022-11-30T06:59:56;4.40;94.80
46816;DHT22;32787;53.316;8.670;2022-11-30T07:02:22;4.40;94.80
46816;DHT22;32787;53.316;8.670;2022-11-30T07:04:48;4.40;94.70
46816;DHT22;32787;53.316;8.670;2022-11-30T07:07:14;4.40;94.80
46816;DHT22;32787;53.316;8.670;2022-11-30T07:09:40;4.40;94.80
46816;DHT22;32787;53.316;8.670;2022-11-30T07:12:06;4.40;94.80
46816;DHT22;32787;53.316;8.670;2022-11-30T07:14:32;4.40;94.80
46816;DHT22;32787;53.316;8.670;2022-11-30T07:16:58;4.50;94.80
46816;DHT22;32787;53.316;8.670;2022-11-30T07:19:23;4.40;94.80
46816;DHT22;32787;53.316;8.670;2022-11-30T07:21:49;4.40;94.80
46816;DHT22;32787;53.316;8.670;2022-11-30T07:24:15;4.40;94.80
46816;DHT22;32787;53.316;8.670;2022-11-30T07:27:00;4.40;94.80
46816;DHT22;32787;53.316;8.670;2022-11-30T07:29:26;4.40;94.70
46816;DHT22;32787;53.316;8.670;2022-11-30T07:31:53;4.40;94.70
46816;DHT22;32787;53.316;8.670;2022-11-30T07:34:19;4.40;94.70
46816;DHT22;32787;53.316;8.670;2022-11-30T07:36:46;4.40;94.70
46816;DHT22;32787;53.316;8.670;2022-11-30T07:39:12;4.50;94.80
46816;DHT22;32787;53.316;8.670;2022-11-30T07:41:38;4.50;94.60
46816;DHT22;32787;53.316;8.670;2022-11-30T07:44:05;4.50;94.60
46816;DHT22;32787;53.316;8.670;2022-11-30T07:46:31;4.60;94.50
46816;DHT22;32787;53.316;8.670;2022-11-30T07:49:05;4.60;94.50
46816;DHT22;32787;53.316;8.670;2022-11-30T07:51:31;4.50;94.40
46816;DHT22;32787;53.316;8.670;2022-11-30T07:53:58;4.50;94.40
46816;DHT22;32787;53.316;8.670;2022-11-30T07:56:24;4.50;94.40
46816;DHT22;32787;53.316;8.670;2022-11-30T07:58:53;4.50;94.40
46816;DHT22;32787;53.316;8.670;2022-11-30T08:01:21;4.50;94.30
46816;DHT22;32787;53.316;8.670;2022-11-30T08:03:48;4.60;94.30
46816;DHT22;32787;53.316;8.670;2022-11-30T08:06:17;4.50;94.40
46816;DHT22;32787;53.316;8.670;2022-11-30T08:08:47;4.50;94.40
46816;DHT22;32787;53.316;8.670;2022-11-30T08:11:15;4.50;94.40
46816;DHT22;32787;53.316;8.670;2022-11-30T08:13:41;4.50;94.40
46816;DHT22;32787;53.316;8.670;2022-11-30T08:16:12;4.50;94.40
46816;DHT22;32787;53.316;8.670;2022-11-30T08:18:39;4.50;94.50
46816;DHT22;32787;53.316;8.670;2022-11-30T08:21:06;4.50;94.50
46816;DHT22;32787;53.316;8.670;2022-11-30T08:23:44;4.60;94.50
46816;DHT22;32787;53.316;8.670;2022-11-30T08:26:13;4.50;94.50
46816;DHT22;32787;53.316;8.670;2022-11-30T08:28:39;4.50;94.50
46816;DHT22;32787;53.316;8.670;2022-11-30T08:31:07;4.40;94.50
46816;DHT22;32787;53.316;8.670;2022-11-30T08:33:34;4.60;94.50
46816;DHT22;32787;53.316;8.670;2022-11-30T08:38:32;4.50;94.30
46816;DHT22;32787;53.316;8.670;2022-11-30T08:40:58;4.50;94.40
46816;DHT22;32787;53.316;8.670;2022-11-30T08:43:23;4.50;94.40
46816;DHT22;32787;53.316;8.670;2022-11-30T08:45:49;4.70;94.30
46816;DHT22;32787;53.316;8.670;2022-11-30T08:48:14;4.60;94.20
46816;DHT22;32787;53.316;8.670;2022-11-30T08:50:40;4.60;94.20
46816;DHT22;32787;53.316;8.670;2022-11-30T08:53:06;4.60;94.20
46816;DHT22;32787;53.316;8.670;2022-11-30T08:55:31;4.70;94.30
46816;DHT22;32787;53.316;8.670;2022-11-30T08:57:57;4.60;94.20
46816;DHT22;32787;53.316;8.670;2022-11-30T09:00:23;4.70;94.30
46816;DHT22;32787;53.316;8.670;2022-11-30T09:02:48;4.60;94.30
46816;DHT22;32787;53.316;8.670;2022-11-30T09:05:14;4.80;94.30
46816;DHT22;32787;53.316;8.670;2022-11-30T09:07:40;4.70;94.20
46816;DHT22;32787;53.316;8.670;2022-11-30T09:10:06;4.60;94.20
46816;DHT22;32787;53.316;8.670;2022-11-30T09:12:37;4.80;94.30
46816;DHT22;32787;53.316;8.670;2022-11-30T09:15:04;4.80;94.20
46816;DHT22;32787;53.316;8.670;2022-11-30T09:17:30;4.70;94.20
46816;DHT22;32787;53.316;8.670;2022-11-30T09:19:56;4.70;94.20
46816;DHT22;32787;53.316;8.670;2022-11-30T09:22:22;4.70;94.30
46816;DHT22;32787;53.316;8.670;2022-11-30T09:24:47;4.70;94.30
46816;DHT22;32787;53.316;8.670;2022-11-30T09:27:13;4.70;94.30
46816;DHT22;32787;53.316;8.670;2022-11-30T09:29:38;4.80;94.30
46816;DHT22;32787;53.316;8.670;2022-11-30T09:32:04;4.70;94.30
46816;DHT22;32787;53.316;8.670;2022-11-30T09:34:31;4.80;94.20
46816;DHT22;32787;53.316;8.670;2022-11-30T09:36:56;4.90;94.10
46816;DHT22;32787;53.316;8.670;2022-11-30T09:39:22;4.90;94.00
46816;DHT22;32787;53.316;8.670;2022-11-30T09:50:23;4.80;93.70
46816;DHT22;32787;53.316;8.670;2022-11-30T09:53:12;4.70;93.70
46816;DHT22;32787;53.316;8.670;2022-11-30T09:55:41;4.80;93.80
46816;DHT22;32787;53.316;8.670;2022-11-30T09:58:26;4.80;94.00
46816;DHT22;32787;53.316;8.670;2022-11-30T10:00:54;4.80;94.00
46816;DHT22;32787;53.316;8.670;2022-11-30T10:03:21;4.90;94.00
46816;DHT22;32787;53.316;8.670;2022-11-30T10:21:59;4.90;93.60
46816;DHT22;32787;53.316;8.670;2022-11-30T10:29:57;5.00;93.70
46816;DHT22;32787;53.316;8.670;2022-11-30T10:32:34;5.00;93.70
46816;DHT22;32787;53.316;8.670;2022-11-30T10:35:15;5.10;93.60
46816;DHT22;32787;53.316;8.670;2022-11-30T10:37:42;5.00;93.40
46816;DHT22;32787;53.316;8.670;2022-11-30T10:43:07;5.00;93.30
46816;DHT22;32787;53.316;8.670;2022-11-30T10:45:41;5.00;93.40
46816;DHT22;32787;53.316;8.670;2022-11-30T10:48:24;5.00;93.40
46816;DHT22;32787;53.316;8.670;2022-11-30T10:50:52;5.00;93.40
46816;DHT22;32787;53.316;8.670;2022-11-30T10:53:18;5.10;93.50
46816;DHT22;32787;53.316;8.670;2022-11-30T10:58:28;5.10;93.40
46816;DHT22;32787;53.316;8.670;2022-11-30T11:03:27;5.10;93.40
46816;DHT22;32787;53.316;8.670;2022-11-30T11:06:05;5.00;93.50
46816;DHT22;32787;53.316;8.670;2022-11-30T11:08:32;5.00;93.50
46816;DHT22;32787;53.316;8.670;2022-11-30T11:10:58;5.00;93.40
46816;DHT22;32787;53.316;8.670;2022-11-30T11:13:41;5.00;93.40
46816;DHT22;32787;53.316;8.670;2022-11-30T11:16:10;5.10;93.40
46816;DHT22;32787;53.316;8.670;2022-11-30T11:18:50;5.10;93.30
46816;DHT22;32787;53.316;8.670;2022-11-30T11:21:18;5.10;93.40
46816;DHT22;32787;53.316;8.670;2022-11-30T11:23:45;5.10;93.40
46816;DHT22;32787;53.316;8.670;2022-11-30T11:28:44;5.30;93.40
46816;DHT22;32787;53.316;8.670;2022-11-30T11:34:03;5.20;93.00
46816;DHT22;32787;53.316;8.670;2022-11-30T11:36:33;5.40;93.20
46816;DHT22;32787;53.316;8.670;2022-11-30T11:39:02;5.40;92.90
46816;DHT22;32787;53.316;8.670;2022-11-30T11:46:36;5.50;92.90
46816;DHT22;32787;53.316;8.670;2022-11-30T11:49:20;5.70;92.40
46816;DHT22;32787;53.316;8.670;2022-11-30T11:52:05;5.50;92.40
46816;DHT22;32787;53.316;8.670;2022-11-30T11:57:15;5.60;92.00
46816;DHT22;32787;53.316;8.670;2022-11-30T12:05:09;5.50;91.60
46816;DHT22;32787;53.316;8.670;2022-11-30T12:08:01;5.40;92.00
46816;DHT22;32787;53.316;8.670;2022-11-30T12:10:32;5.60;92.40
46816;DHT22;32787;53.316;8.670;2022-11-30T12:12:58;5.40;92.30
46816;DHT22;32787;53.316;8.670;2022-11-30T12:15:35;5.50;92.40
46816;DHT22;32787;53.316;8.670;2022-11-30T12:18:20;5.40;92.40
46816;DHT22;32787;53.316;8.670;2022-11-30T12:20:57;5.40;92.60
46816;DHT22;32787;53.316;8.670;2022-11-30T12:26:40;5.80;92.30
46816;DHT22;32787;53.316;8.670;2022-11-30T12:32:01;5.70;92.30
46816;DHT22;32787;53.316;8.670;2022-11-30T12:40:32;5.50;92.20
46816;DHT22;32787;53.316;8.670;2022-11-30T12:45:42;5.40;92.30
46816;DHT22;32787;53.316;8.670;2022-11-30T12:51:16;5.40;92.70
46816;DHT22;32787;53.316;8.670;2022-11-30T12:54:00;5.50;92.50
46816;DHT22;32787;53.316;8.670;2022-11-30T12:56:48;5.40;92.60
46816;DHT22;32787;53.316;8.670;2022-11-30T13:02:25;5.60;92.60
46816;DHT22;32787;53.316;8.670;2022-11-30T13:05:01;5.60;92.70
46816;DHT22;32787;53.316;8.670;2022-11-30T13:07:50;5.60;92.70
46816;DHT22;32787;53.316;8.670;2022-11-30T13:12:55;5.50;92.60
46816;DHT22;32787;53.316;8.670;2022-11-30T13:15:25;5.50;92.70
46816;DHT22;32787;53.316;8.670;2022-11-30T13:17:52;5.60;92.50
46816;DHT22;32787;53.316;8.670;2022-11-30T13:20:43;5.60;92.70
46816;DHT22;32787;53.316;8.670;2022-11-30T13:23:56;5.70;92.60
46816;DHT22;32787;53.316;8.670;2022-11-30T13:26:44;5.60;92.00
46816;DHT22;32787;53.316;8.670;2022-11-30T13:32:10;5.50;92.70
46816;DHT22;32787;53.316;8.670;2022-11-30T13:34:37;5.50;92.80
46816;DHT22;32787;53.316;8.670;2022-11-30T13:44:47;5.50;92.80
46816;DHT22;32787;53.316;8.670;2022-11-30T13:47:32;5.50;92.80
46816;DHT22;32787;53.316;8.670;2022-11-30T13:50:14;5.50;92.70
46816;DHT22;32787;53.316;8.670;2022-11-30T13:58:14;5.50;92.80
46816;DHT22;32787;53.316;8.670;2022-11-30T14:13:33;5.40;92.90
46816;DHT22;32787;53.316;8.670;2022-11-30T14:15:59;5.60;92.90
46816;DHT22;32787;53.316;8.670;2022-11-30T14:18:36;5.60;92.50
46816;DHT22;32787;53.316;8.670;2022-11-30T14:21:32;5.60;92.40
46816;DHT22;32787;53.316;8.670;2022-11-30T14:24:18;5.50;92.60
46816;DHT22;32787;53.316;8.670;2022-11-30T14:26:47;5.40;92.60
46816;DHT22;32787;53.316;8.670;2022-11-30T14:29:20;5.30;92.70
46816;DHT22;32787;53.316;8.670;2022-11-30T14:34:36;5.20;93.20
46816;DHT22;32787;53.316;8.670;2022-11-30T14:39:42;5.20;93.20
46816;DHT22;32787;53.316;8.670;2022-11-30T14:42:26;5.10;93.40
46816;DHT22;32787;53.316;8.670;2022-11-30T14:44:53;5.30;93.40
46816;DHT22;32787;53.316;8.670;2022-11-30T14:47:30;5.20;93.50
46816;DHT22;32787;53.316;8.670;2022-11-30T14:49:57;5.20;93.40
46816;DHT22;32787;53.316;8.670;2022-11-30T14:58:36;5.40;93.80
46816;DHT22;32787;53.316;8.670;2022-11-30T15:00:52;5.50;93.20
46816;DHT22;32787;53.316;8.670;2022-11-30T15:03:31;5.40;93.40
46816;DHT22;32787;53.316;8.670;2022-11-30T15:05:59;5.50;93.00
46816;DHT22;32787;53.316;8.670;2022-11-30T15:11:05;5.20;93.00
46816;DHT22;32787;53.316;8.670;2022-11-30T15:13:31;5.20;93.10
46816;DHT22;32787;53.316;8.670;2022-11-30T15:15:57;5.20;93.20
46816;DHT22;32787;53.316;8.670;2022-11-30T15:18:24;5.10;93.30
46816;DHT22;32787;53.316;8.670;2022-11-30T15:21:05;5.30;93.50
46816;DHT22;32787;53.316;8.670;2022-11-30T15:23:33;5.20;93.20
46816;DHT22;32787;53.316;8.670;2022-11-30T15:26:09;5.40;93.40
46816;DHT22;32787;53.316;8.670;2022-11-30T15:28:40;5.40;93.30
46816;DHT22;32787;53.316;8.670;2022-11-30T15:31:11;5.40;92.50
46816;DHT22;32787;53.316;8.670;2022-11-30T15:33:43;5.30;92.70
46816;DHT22;32787;53.316;8.670;2022-11-30T15:36:10;5.40;92.90
46816;DHT22;32787;53.316;8.670;2022-11-30T15:38:36;5.20;92.80
46816;DHT22;32787;53.316;8.670;2022-11-30T15:41:23;5.30;93.00
46816;DHT22;32787;53.316;8.670;2022-11-30T15:43:52;5.20;92.90
46816;DHT22;32787;53.316;8.670;2022-11-30T15:46:33;5.20;93.10
46816;DHT22;32787;53.316;8.670;2022-11-30T15:51:40;5.30;93.20
46816;DHT22;32787;53.316;8.670;2022-11-30T15:54:06;5.10;93.10
46816;DHT22;32787;53.316;8.670;2022-11-30T15:56:31;5.40;93.10
46816;DHT22;32787;53.316;8.670;2022-11-30T16:01:53;5.50;93.10
46816;DHT22;32787;53.316;8.670;2022-11-30T16:07:23;5.20;93.00
46816;DHT22;32787;53.316;8.670;2022-11-30T16:09:49;5.20;93.10
46816;DHT22;32787;53.316;8.670;2022-11-30T16:12:25;5.10;93.20
46816;DHT22;32787;53.316;8.670;2022-11-30T16:14:52;5.10;93.30
46816;DHT22;32787;53.316;8.670;2022-11-30T16:17:17;5.10;93.50
46816;DHT22;32787;53.316;8.670;2022-11-30T16:19:43;5.30;93.40
46816;DHT22;32787;53.316;8.670;2022-11-30T16:22:11;5.40;93.50
46816;DHT22;32787;53.316;8.670;2022-11-30T16:24:37;5.30;93.00
46816;DHT22;32787;53.316;8.670;2022-11-30T16:27:16;5.30;93.10
46816;DHT22;32787;53.316;8.670;2022-11-30T16:29:43;5.40;93.20
46816;DHT22;32787;53.316;8.670;2022-11-30T16:32:11;5.40;92.90
46816;DHT22;32787;53.316;8.670;2022-11-30T16:34:37;5.40;92.90
46816;DHT22;32787;53.316;8.670;2022-11-30T16:37:02;5.20;92.80
46816;DHT22;32787;53.316;8.670;2022-11-30T16:39:29;5.10;93.00
46816;DHT22;32787;53.316;8.670;2022-11-30T16:41:55;5.10;93.20
46816;DHT22;32787;53.316;8.670;2022-11-30T16:44:21;5.10;93.40
46816;DHT22;32787;53.316;8.670;2022-11-30T16:46:48;5.10;93.40
46816;DHT22;32787;53.316;8.670;2022-11-30T16:49:14;5.10;93.40
46816;DHT22;32787;53.316;8.670;2022-11-30T16:51:40;5.10;93.60
46816;DHT22;32787;53.316;8.670;2022-11-30T16:54:15;5.30;93.60
46816;DHT22;32787;53.316;8.670;2022-11-30T16:56:41;5.30;93.50
46816;DHT22;32787;53.316;8.670;2022-11-30T16:59:08;5.40;92.90
46816;DHT22;32787;53.316;8.670;2022-11-30T17:01:36;5.40;92.60
46816;DHT22;32787;53.316;8.670;2022-11-30T17:04:09;5.40;92.70
46816;DHT22;32787;53.316;8.670;2022-11-30T17:06:36;5.30;92.50
46816;DHT22;32787;53.316;8.670;2022-11-30T17:09:02;5.10;92.70
46816;DHT22;32787;53.316;8.670;2022-11-30T17:11:31;5.10;92.90
46816;DHT22;32787;53.316;8.670;2022-11-30T17:13:57;5.00;93.10
46816;DHT22;32787;53.316;8.670;2022-11-30T17:16:23;5.00;93.20
46816;DHT22;32787;53.316;8.670;2022-11-30T17:18:49;5.00;93.40
46816;DHT22;32787;53.316;8.670;2022-11-30T17:21:16;5.10;93.50
46816;DHT22;32787;53.316;8.670;2022-11-30T17:23:44;5.20;93.40
46816;DHT22;32787;53.316;8.670;2022-11-30T17:26:11;5.20;93.40
46816;DHT22;32787;53.316;8.670;2022-11-30T17:28:37;5.20;93.30
46816;DHT22;32787;53.316;8.670;2022-11-30T17:31:03;5.20;93.40
46816;DHT22;32787;53.316;8.670;2022-11-30T17:33:31;5.40;93.30
46816;DHT22;32787;53.316;8.670;2022-11-30T17:35:57;5.40;92.90
46816;DHT22;32787;53.316;8.670;2022-11-30T17:38:25;5.20;92.90
46816;DHT22;32787;53.316;8.670;2022-11-30T17:40:52;5.30;93.00
46816;DHT22;32787;53.316;8.670;2022-11-30T17:43:18;5.10;92.90
46816;DHT22;32787;53.316;8.670;2022-11-30T17:45:43;5.10;93.10
46816;DHT22;32787;53.316;8.670;2022-11-30T17:48:09;5.10;93.10
46816;DHT22;32787;53.316;8.670;2022-11-30T17:50:37;5.00;93.20
46816;DHT22;32787;53.316;8.670;2022-11-30T17:53:03;5.00;93.20
46816;DHT22;32787;53.316;8.670;2022-11-30T17:55:30;5.00;93.30
46816;DHT22;32787;53.316;8.670;2022-11-30T17:57:56;5.20;93.30
46816;DHT22;32787;53.316;8.670;2022-11-30T18:00:22;5.30;93.20
46816;DHT22;32787;53.316;8.670;2022-11-30T18:02:51;5.20;93.20
46816;DHT22;32787;53.316;8.670;2022-11-30T18:05:18;5.20;93.20
46816;DHT22;32787;53.316;8.670;2022-11-30T18:07:44;5.10;93.20
46816;DHT22;32787;53.316;8.670;2022-11-30T18:10:10;5.00;93.30
46816;DHT22;32787;53.316;8.670;2022-11-30T18:12:35;5.00;93.40
46816;DHT22;32787;53.316;8.670;2022-11-30T18:15:02;5.00;93.40
46816;DHT22;32787;53.316;8.670;2022-11-30T18:17:27;5.00;93.50
46816;DHT22;32787;53.316;8.670;2022-11-30T18:19:53;5.00;93.60
46816;DHT22;32787;53.316;8.670;2022-11-30T18:22:19;5.10;93.70
46816;DHT22;32787;53.316;8.670;2022-11-30T18:24:44;5.20;93.40
46816;DHT22;32787;53.316;8.670;2022-11-30T18:27:10;5.00;93.30